Time;durP1;ratioP1;P1;durP2;ratioP2;P2;SDS_P1;SDS_P2;PMS_P1;PMS_P2;Temp;Humidity;BMP_temperature;BMP_pressure;BME280_temperature;BME280_humidity;BME280_pressure;Samples;Min_cycle;Max_cycle;Signal;HPM_P1;HPM_P2
2024/03/26 00:02:05;;;;;;;1.23;1.20;;;;;;;;;;5016275;28;20069;-82
2024/03/26 00:04:30;;;;;;;0.30;0.30;;;;;;;;;;5002569;28;20153;-80
2024/03/26 00:06:56;;;;;;;1.58;1.48;;;;;;;;;;5007219;28;20529;-80
2024/03/26 00:09:24;;;;;;;0.30;0.30;;;;;;;;;;4985477;28;20061;-77
2024/03/26 00:11:49;;;;;;;2.38;2.28;;;;;;;;;;5002397;28;20030;-81
2024/03/26 00:14:15;;;;;;;0.28;0.28;;;;;;;;;;5004994;28;20037;-81
2024/03/26 00:16:40;;;;;;;12.57;11.27;;;;;;;;;;4993767;28;20042;-82
2024/03/26 00:19:06;;;;;;;0.30;0.30;;;;;;;;;;4999685;28;20517;-78
2024/03/26 00:21:31;;;;;;;1.23;1.20;;;;;;;;;;4997445;28;20054;-81
2024/03/26 00:23:56;;;;;;;0.75;0.75;;;;;;;;;;5001317;28;20053;-81
2024/03/26 00:26:22;;;;;;;0.30;0.30;;;;;;;;;;5007116;28;20656;-81
2024/03/26 00:28:47;;;;;;;0.50;0.50;;;;;;;;;;5002004;28;20095;-79
2024/03/26 00:31:13;;;;;;;0.45;0.40;;;;;;;;;;5004098;28;20486;-79
2024/03/26 00:33:38;;;;;;;0.30;0.30;;;;;;;;;;5002943;28;20069;-78
2024/03/26 00:36:03;;;;;;;1.13;0.85;;;;;;;;;;5001811;28;20137;-80
2024/03/26 00:38:29;;;;;;;2.30;2.17;;;;;;;;;;5005158;28;20029;-81
2024/03/26 00:40:54;;;;;;;0.30;0.30;;;;;;;;;;5005423;28;20137;-80
2024/03/26 00:43:20;;;;;;;0.20;0.20;;;;;;;;;;5006469;28;20073;-81
2024/03/26 00:45:45;;;;;;;0.50;0.50;;;;;;;;;;5004457;28;20575;-82
2024/03/26 00:48:11;;;;;;;0.50;0.50;;;;;;;;;;4999232;28;20770;-81
2024/03/26 00:50:36;;;;;;;0.30;0.30;;;;;;;;;;5006261;28;20072;-78
2024/03/26 00:53:02;;;;;;;0.20;0.20;;;;;;;;;;4999520;28;20675;-82
2024/03/26 00:55:27;;;;;;;0.40;0.40;;;;;;;;;;5001885;28;20053;-79
2024/03/26 00:57:53;;;;;;;0.20;0.20;;;;;;;;;;4987315;28;20505;-83
2024/03/26 01:00:19;;;;;;;0.30;0.30;;;;;;;;;;5007875;28;20037;-82
2024/03/26 01:02:44;;;;;;;0.40;0.40;;;;;;;;;;5030708;28;20061;-79
2024/03/26 01:05:10;;;;;;;2.72;2.58;;;;;;;;;;5020384;28;20033;-81
2024/03/26 01:07:35;;;;;;;1.83;1.73;;;;;;;;;;5021831;28;20037;-80
2024/03/26 01:10:01;;;;;;;0.30;0.30;;;;;;;;;;5024328;28;20041;-81
2024/03/26 01:12:26;;;;;;;0.30;0.30;;;;;;;;;;5025908;28;20057;-79
2024/03/26 01:14:51;;;;;;;0.25;0.25;;;;;;;;;;5024083;28;20052;-81
2024/03/26 01:17:17;;;;;;;0.30;0.30;;;;;;;;;;5033481;28;20484;-77
2024/03/26 01:19:43;;;;;;;0.32;0.32;;;;;;;;;;5030693;28;20183;-78
2024/03/26 01:22:08;;;;;;;0.30;0.30;;;;;;;;;;5041006;28;20061;-85
2024/03/26 01:24:34;;;;;;;0.30;0.30;;;;;;;;;;5034489;28;20493;-83
2024/03/26 01:26:59;;;;;;;0.60;0.50;;;;;;;;;;5024473;28;20045;-82
2024/03/26 01:29:24;;;;;;;0.30;0.30;;;;;;;;;;5024772;28;20071;-81
2024/03/26 01:31:50;;;;;;;0.57;0.57;;;;;;;;;;5021684;28;20476;-83
2024/03/26 01:34:18;;;;;;;0.30;0.30;;;;;;;;;;5022684;28;20045;-79
2024/03/26 01:36:44;;;;;;;0.40;0.40;;;;;;;;;;5024931;28;20044;-82
2024/03/26 01:39:09;;;;;;;0.30;0.30;;;;;;;;;;5024383;28;20041;-82
2024/03/26 01:41:35;;;;;;;0.20;0.20;;;;;;;;;;5023658;28;20079;-82
2024/03/26 01:44:00;;;;;;;0.68;0.68;;;;;;;;;;5024467;28;20761;-82
2024/03/26 01:46:26;;;;;;;0.30;0.30;;;;;;;;;;5025531;28;20088;-79
2024/03/26 01:48:52;;;;;;;0.40;0.40;;;;;;;;;;5022871;28;20037;-80
2024/03/26 01:51:18;;;;;;;0.30;0.30;;;;;;;;;;5025050;28;20053;-83
2024/03/26 01:53:44;;;;;;;0.30;0.30;;;;;;;;;;5024344;28;20469;-78
2024/03/26 01:56:10;;;;;;;0.20;0.20;;;;;;;;;;5023395;28;20083;-79
2024/03/26 01:58:35;;;;;;;0.30;0.30;;;;;;;;;;5009850;28;20684;-81
2024/03/26 02:01:02;;;;;;;7.10;6.65;;;;;;;;;;5021576;28;20053;-76
2024/03/26 02:03:27;;;;;;;1.52;1.42;;;;;;;;;;5023971;28;20128;-80
2024/03/26 02:05:53;;;;;;;0.30;0.30;;;;;;;;;;5022117;28;20112;-81
2024/03/26 02:08:19;;;;;;;0.30;0.30;;;;;;;;;;5025057;28;20053;-79
2024/03/26 02:10:44;;;;;;;0.52;0.52;;;;;;;;;;5000013;28;20048;-78
2024/03/26 02:13:10;;;;;;;0.60;0.60;;;;;;;;;;5022063;28;20033;-81
2024/03/26 02:15:35;;;;;;;0.20;0.20;;;;;;;;;;5002076;28;20057;-78
2024/03/26 02:18:00;;;;;;;0.32;0.32;;;;;;;;;;5021087;28;20041;-81
2024/03/26 02:20:26;;;;;;;0.30;0.30;;;;;;;;;;5022118;28;20717;-81
2024/03/26 02:22:56;;;;;;;0.68;0.68;;;;;;;;;;5010214;28;20037;-79
2024/03/26 02:25:21;;;;;;;1.17;1.08;;;;;;;;;;5022236;28;20053;-79
2024/03/26 02:27:47;;;;;;;0.30;0.30;;;;;;;;;;5022219;28;20042;-81
2024/03/26 02:30:13;;;;;;;0.60;0.40;;;;;;;;;;5021828;28;20058;-79
2024/03/26 02:32:38;;;;;;;0.20;0.20;;;;;;;;;;5025530;28;20026;-79
2024/03/26 02:35:03;;;;;;;0.30;0.30;;;;;;;;;;5025988;28;20033;-80
2024/03/26 02:37:29;;;;;;;1.17;1.13;;;;;;;;;;5024046;28;20058;-79
2024/03/26 02:39:54;;;;;;;0.40;0.40;;;;;;;;;;5021652;28;20497;-79
2024/03/26 02:42:19;;;;;;;0.38;0.38;;;;;;;;;;5025178;28;20029;-79
2024/03/26 02:44:46;;;;;;;0.40;0.40;;;;;;;;;;5022002;28;20025;-77
2024/03/26 02:47:12;;;;;;;0.30;0.30;;;;;;;;;;5026345;28;20056;-80
2024/03/26 02:49:37;;;;;;;0.20;0.20;;;;;;;;;;5020271;28;20076;-80
2024/03/26 02:52:03;;;;;;;0.57;0.57;;;;;;;;;;5023120;28;20409;-82
2024/03/26 02:54:28;;;;;;;0.50;0.50;;;;;;;;;;5021184;28;20080;-81
2024/03/26 02:56:53;;;;;;;0.30;0.30;;;;;;;;;;5019980;28;20492;-82
2024/03/26 02:59:19;;;;;;;0.30;0.30;;;;;;;;;;5019237;28;20022;-81
2024/03/26 03:01:44;;;;;;;0.28;0.28;;;;;;;;;;5023838;28;20064;-82
2024/03/26 03:04:10;;;;;;;1.08;0.95;;;;;;;;;;5021426;28;20099;-82
2024/03/26 03:06:35;;;;;;;0.52;0.45;;;;;;;;;;5029220;28;20038;-80
2024/03/26 03:09:00;;;;;;;0.40;0.40;;;;;;;;;;5027179;28;20512;-81
2024/03/26 03:11:26;;;;;;;0.40;0.40;;;;;;;;;;5021148;28;20025;-81
2024/03/26 03:13:51;;;;;;;0.20;0.20;;;;;;;;;;5022427;28;20693;-79
2024/03/26 03:16:17;;;;;;;1.48;1.42;;;;;;;;;;5018363;28;20045;-80
2024/03/26 03:18:43;;;;;;;0.20;0.20;;;;;;;;;;5000883;28;20049;-78
2024/03/26 03:21:09;;;;;;;0.45;0.45;;;;;;;;;;5022699;28;20548;-80
2024/03/26 03:23:35;;;;;;;0.30;0.30;;;;;;;;;;5010435;28;20034;-78
2024/03/26 03:26:00;;;;;;;0.30;0.30;;;;;;;;;;5032792;28;20026;-81
2024/03/26 03:28:26;;;;;;;0.30;0.30;;;;;;;;;;5008427;28;20068;-78
2024/03/26 03:30:51;;;;;;;2.28;2.17;;;;;;;;;;5021506;28;20033;-79
2024/03/26 03:33:17;;;;;;;0.30;0.30;;;;;;;;;;5022332;28;20076;-78
2024/03/26 03:35:42;;;;;;;2.75;2.05;;;;;;;;;;5002207;28;20079;-79
2024/03/26 03:38:08;;;;;;;1.50;1.45;;;;;;;;;;5019284;28;20029;-79
2024/03/26 03:40:33;;;;;;;0.50;0.50;;;;;;;;;;5019651;28;20482;-79
2024/03/26 03:42:59;;;;;;;0.30;0.30;;;;;;;;;;5002838;28;20038;-81
2024/03/26 03:45:24;;;;;;;0.30;0.30;;;;;;;;;;5022105;28;20076;-81
2024/03/26 03:47:50;;;;;;;0.28;0.28;;;;;;;;;;5001211;28;20569;-82
2024/03/26 03:50:15;;;;;;;0.40;0.40;;;;;;;;;;5027254;28;20033;-82
2024/03/26 03:52:40;;;;;;;0.20;0.20;;;;;;;;;;5015516;28;20041;-79
2024/03/26 03:55:06;;;;;;;0.30;0.30;;;;;;;;;;5024959;28;20077;-80
2024/03/26 03:57:31;;;;;;;0.30;0.30;;;;;;;;;;5033696;28;20033;-80
2024/03/26 03:59:56;;;;;;;0.30;0.30;;;;;;;;;;5032599;28;20875;-79
2024/03/26 04:02:22;;;;;;;0.30;0.30;;;;;;;;;;5037983;28;20056;-80
2024/03/26 04:04:47;;;;;;;0.85;0.85;;;;;;;;;;5032927;28;20041;-83
2024/03/26 04:07:13;;;;;;;0.30;0.30;;;;;;;;;;5027579;28;20584;-81
2024/03/26 04:09:38;;;;;;;0.30;0.30;;;;;;;;;;5025818;28;20049;-81
2024/03/26 04:12:04;;;;;;;0.30;0.30;;;;;;;;;;5021307;28;20041;-80
2024/03/26 04:14:29;;;;;;;0.22;0.22;;;;;;;;;;5026327;28;20029;-80
2024/03/26 04:16:55;;;;;;;2.42;2.33;;;;;;;;;;5025882;28;20402;-82
2024/03/26 04:19:21;;;;;;;0.30;0.30;;;;;;;;;;5025471;28;20501;-80
2024/03/26 04:21:47;;;;;;;0.30;0.30;;;;;;;;;;5020036;28;20052;-84
2024/03/26 04:24:12;;;;;;;0.30;0.30;;;;;;;;;;5017845;28;20049;-79
2024/03/26 04:26:37;;;;;;;0.30;0.30;;;;;;;;;;5023407;28;20466;-82
2024/03/26 04:29:03;;;;;;;0.30;0.30;;;;;;;;;;5019929;28;20033;-82
2024/03/26 04:31:28;;;;;;;0.82;0.80;;;;;;;;;;5003589;28;20041;-83
2024/03/26 04:33:54;;;;;;;0.70;0.70;;;;;;;;;;5023116;28;20083;-82
2024/03/26 04:36:19;;;;;;;0.40;0.40;;;;;;;;;;5021537;28;20057;-80
2024/03/26 04:38:44;;;;;;;0.30;0.30;;;;;;;;;;5011937;28;20080;-81
2024/03/26 04:41:10;;;;;;;0.30;0.30;;;;;;;;;;5020517;28;20037;-81
2024/03/26 04:43:35;;;;;;;0.40;0.40;;;;;;;;;;5023407;28;20121;-81
2024/03/26 04:46:01;;;;;;;0.30;0.30;;;;;;;;;;5021866;28;20489;-83
2024/03/26 04:48:26;;;;;;;0.40;0.40;;;;;;;;;;5022228;28;20034;-83
2024/03/26 04:50:51;;;;;;;0.20;0.20;;;;;;;;;;5025154;28;20024;-83
2024/03/26 04:53:17;;;;;;;3.78;3.42;;;;;;;;;;5023585;28;20525;-83
2024/03/26 04:55:42;;;;;;;0.30;0.30;;;;;;;;;;5025287;28;20103;-82
2024/03/26 04:58:08;;;;;;;0.47;0.47;;;;;;;;;;5024628;28;20240;-76
2024/03/26 05:00:33;;;;;;;0.30;0.30;;;;;;;;;;5006398;28;20140;-80
2024/03/26 05:03:00;;;;;;;0.30;0.30;;;;;;;;;;5005531;28;20076;-80
2024/03/26 05:05:25;;;;;;;0.40;0.40;;;;;;;;;;5027339;28;20373;-80
2024/03/26 05:07:51;;;;;;;0.50;0.50;;;;;;;;;;5019850;28;20046;-80
2024/03/26 05:10:17;;;;;;;0.20;0.20;;;;;;;;;;5024617;28;20469;-79
2024/03/26 05:12:43;;;;;;;0.30;0.30;;;;;;;;;;5022579;28;20041;-81
2024/03/26 05:15:08;;;;;;;7.28;6.93;;;;;;;;;;5004929;28;20057;-81
2024/03/26 05:17:34;;;;;;;3.08;2.95;;;;;;;;;;5024953;28;20488;-80
2024/03/26 05:19:59;;;;;;;0.30;0.30;;;;;;;;;;5024250;28;20132;-80
2024/03/26 05:22:24;;;;;;;0.35;0.35;;;;;;;;;;5022011;28;20041;-80
2024/03/26 05:24:51;;;;;;;1.35;1.25;;;;;;;;;;5021204;28;20379;-79
2024/03/26 05:27:16;;;;;;;0.40;0.40;;;;;;;;;;5005141;28;20041;-81
2024/03/26 05:29:42;;;;;;;0.30;0.30;;;;;;;;;;5026333;28;20740;-79
2024/03/26 05:32:07;;;;;;;1.23;1.23;;;;;;;;;;5020411;28;20029;-80
2024/03/26 05:34:33;;;;;;;0.40;0.40;;;;;;;;;;5002916;28;20104;-81
2024/03/26 05:36:58;;;;;;;2.70;2.47;;;;;;;;;;5018351;28;20051;-81
2024/03/26 05:39:24;;;;;;;0.30;0.30;;;;;;;;;;5021409;28;20124;-82
2024/03/26 05:41:50;;;;;;;9.38;8.93;;;;;;;;;;5020930;28;20027;-82
2024/03/26 05:44:16;;;;;;;0.63;0.63;;;;;;;;;;5024256;28;20424;-80
2024/03/26 05:46:42;;;;;;;0.65;0.60;;;;;;;;;;5024275;28;20049;-80
2024/03/26 05:49:07;;;;;;;0.20;0.20;;;;;;;;;;5025938;28;20037;-81
2024/03/26 05:51:33;;;;;;;0.28;0.28;;;;;;;;;;5019726;28;20053;-80
2024/03/26 05:53:58;;;;;;;0.20;0.20;;;;;;;;;;5005342;28;20041;-82
2024/03/26 05:56:23;;;;;;;0.75;0.73;;;;;;;;;;5004154;28;20041;-80
2024/03/26 05:58:51;;;;;;;0.38;0.38;;;;;;;;;;5022314;28;20133;-79
2024/03/26 06:01:17;;;;;;;0.40;0.40;;;;;;;;;;5020933;28;20049;-80
2024/03/26 06:03:43;;;;;;;0.20;0.20;;;;;;;;;;5022241;28;20045;-78
2024/03/26 06:06:09;;;;;;;2.30;2.10;;;;;;;;;;5021589;28;20546;-81
2024/03/26 06:08:34;;;;;;;1.13;0.82;;;;;;;;;;5025115;28;20056;-80
2024/03/26 06:11:00;;;;;;;1.67;1.33;;;;;;;;;;5024719;28;20037;-79
2024/03/26 06:13:25;;;;;;;0.80;0.77;;;;;;;;;;5025412;28;20041;-84
2024/03/26 06:16:00;;;;;;;1.58;1.00;;;;;;;;;;5027495;28;20052;-83
2024/03/26 06:18:26;;;;;;;1.25;1.15;;;;;;;;;;5025562;28;20470;-88
2024/03/26 06:20:51;;;;;;;0.63;0.63;;;;;;;;;;5025288;28;20032;-86
2024/03/26 06:23:16;;;;;;;2.38;1.42;;;;;;;;;;5025461;28;20021;-86
2024/03/26 06:25:42;;;;;;;2.17;1.52;;;;;;;;;;5021275;28;20478;-85
2024/03/26 06:28:07;;;;;;;1.58;1.13;;;;;;;;;;5025835;28;20037;-85
2024/03/26 06:30:33;;;;;;;9.25;1.20;;;;;;;;;;5022315;28;20038;-80
2024/03/26 06:32:59;;;;;;;0.30;0.30;;;;;;;;;;5015517;28;20152;-82
2024/03/26 06:35:24;;;;;;;2.38;1.98;;;;;;;;;;5005639;28;20226;-82
2024/03/26 06:37:49;;;;;;;2.85;1.63;;;;;;;;;;5033212;28;20030;-81
2024/03/26 06:40:15;;;;;;;1.02;0.93;;;;;;;;;;5008960;28;20049;-79
2024/03/26 06:42:41;;;;;;;1.35;1.25;;;;;;;;;;5006510;28;20068;-81
2024/03/26 06:45:06;;;;;;;1.23;1.13;;;;;;;;;;5003671;28;20119;-80
2024/03/26 06:47:32;;;;;;;1.38;1.15;;;;;;;;;;5020113;28;20057;-80
2024/03/26 06:49:57;;;;;;;1.33;0.90;;;;;;;;;;5020740;28;20034;-78
2024/03/26 06:52:22;;;;;;;2.03;1.27;;;;;;;;;;5004629;28;20029;-80
2024/03/26 06:54:48;;;;;;;0.63;0.63;;;;;;;;;;5022490;28;20095;-80
2024/03/26 06:57:13;;;;;;;0.50;0.50;;;;;;;;;;4998186;28;20049;-78
2024/03/26 06:59:39;;;;;;;0.50;0.30;;;;;;;;;;5024865;28;20025;-80
2024/03/26 07:02:05;;;;;;;2.15;1.95;;;;;;;;;;5003097;28;20046;-79
2024/03/26 07:04:30;;;;;;;1.65;1.55;;;;;;;;;;5022757;28;20033;-79
2024/03/26 07:06:56;;;;;;;0.82;0.80;;;;;;;;;;5023603;28;20030;-79
2024/03/26 07:09:21;;;;;;;1.95;1.15;;;;;;;;;;5023593;28;20582;-81
2024/03/26 07:11:46;;;;;;;1.50;1.20;;;;;;;;;;5024597;28;20026;-79
2024/03/26 07:14:12;;;;;;;1.27;1.02;;;;;;;;;;5022946;28;20545;-78
2024/03/26 07:16:38;;;;;;;1.20;1.10;;;;;;;;;;5022883;28;20050;-79
2024/03/26 07:19:03;;;;;;;0.73;0.70;;;;;;;;;;5022695;28;20556;-81
2024/03/26 07:21:29;;;;;;;1.35;1.25;;;;;;;;;;5000375;28;20479;-80
2024/03/26 07:23:54;;;;;;;1.83;1.73;;;;;;;;;;5005989;28;20036;-80
2024/03/26 07:26:21;;;;;;;0.30;0.30;;;;;;;;;;5024366;28;20060;-79
2024/03/26 07:28:46;;;;;;;1.35;0.77;;;;;;;;;;5022546;28;20033;-79
2024/03/26 07:31:12;;;;;;;1.55;1.40;;;;;;;;;;5022012;28;20901;-78
2024/03/26 07:33:37;;;;;;;1.77;1.33;;;;;;;;;;5025142;28;20094;-79
2024/03/26 07:36:03;;;;;;;1.17;1.17;;;;;;;;;;5024573;28;20573;-80
2024/03/26 07:38:28;;;;;;;1.38;0.85;;;;;;;;;;5006247;28;20699;-80
2024/03/26 07:40:54;;;;;;;3.20;1.83;;;;;;;;;;5007304;28;20037;-80
2024/03/26 07:43:19;;;;;;;1.05;1.02;;;;;;;;;;5002556;28;20037;-79
2024/03/26 07:45:44;;;;;;;0.30;0.30;;;;;;;;;;5008389;28;20095;-79
2024/03/26 07:48:10;;;;;;;0.30;0.30;;;;;;;;;;5008426;28;20069;-80
2024/03/26 07:50:35;;;;;;;2.42;1.95;;;;;;;;;;5025564;28;20026;-78
2024/03/26 07:53:01;;;;;;;0.40;0.40;;;;;;;;;;5023650;28;20038;-80
2024/03/26 07:55:26;;;;;;;0.20;0.20;;;;;;;;;;5026994;28;20053;-80
2024/03/26 07:57:52;;;;;;;1.33;1.23;;;;;;;;;;5027353;28;20053;-79
2024/03/26 08:00:18;;;;;;;1.40;1.30;;;;;;;;;;5023919;28;20046;-79
2024/03/26 08:02:44;;;;;;;1.73;1.02;;;;;;;;;;5012685;28;20052;-81
2024/03/26 08:05:09;;;;;;;0.30;0.30;;;;;;;;;;5005834;28;20026;-81
2024/03/26 08:07:35;;;;;;;0.40;0.40;;;;;;;;;;5005064;28;20410;-79
2024/03/26 08:10:00;;;;;;;0.50;0.50;;;;;;;;;;5009357;28;20034;-81
2024/03/26 08:12:26;;;;;;;1.17;1.08;;;;;;;;;;5009551;28;20406;-80
2024/03/26 08:14:51;;;;;;;2.47;2.38;;;;;;;;;;5007005;28;20392;-80
2024/03/26 08:17:16;;;;;;;0.47;0.40;;;;;;;;;;4993485;28;20741;-81
2024/03/26 08:19:42;;;;;;;0.20;0.20;;;;;;;;;;5009574;28;20029;-79
2024/03/26 08:22:07;;;;;;;2.97;2.35;;;;;;;;;;5009702;28;20048;-83
2024/03/26 08:24:33;;;;;;;1.25;1.15;;;;;;;;;;5012075;28;20044;-82
2024/03/26 08:26:58;;;;;;;0.20;0.20;;;;;;;;;;5009741;28;20159;-80
2024/03/26 08:29:24;;;;;;;1.13;0.55;;;;;;;;;;5008375;28;20478;-80
2024/03/26 08:31:49;;;;;;;3.50;1.52;;;;;;;;;;5015243;28;20041;-79
2024/03/26 08:34:15;;;;;;;1.48;0.82;;;;;;;;;;5008710;28;20088;-76
2024/03/26 08:36:40;;;;;;;11.50;7.38;;;;;;;;;;5008305;28;20100;-76
2024/03/26 08:39:09;;;;;;;1.33;1.10;;;;;;;;;;5008551;28;20152;-77
2024/03/26 08:41:34;;;;;;;0.60;0.40;;;;;;;;;;5008980;28;20141;-76
2024/03/26 08:44:00;;;;;;;1.33;1.23;;;;;;;;;;5006149;28;20136;-75
2024/03/26 08:46:25;;;;;;;1.35;1.25;;;;;;;;;;4990867;28;20045;-76
2024/03/26 08:48:51;;;;;;;1.70;1.13;;;;;;;;;;5009882;28;20092;-76
2024/03/26 08:51:16;;;;;;;1.58;1.45;;;;;;;;;;5009729;28;20053;-75
2024/03/26 08:53:41;;;;;;;0.45;0.45;;;;;;;;;;4999935;28;20026;-76
2024/03/26 08:56:07;;;;;;;2.25;1.60;;;;;;;;;;5001955;28;20093;-75
2024/03/26 08:58:32;;;;;;;1.42;1.20;;;;;;;;;;4998585;28;20442;-74
2024/03/26 09:00:57;;;;;;;3.17;2.10;;;;;;;;;;4987701;28;20225;-74
2024/03/26 09:03:24;;;;;;;1.50;1.30;;;;;;;;;;4999615;28;20061;-74
2024/03/26 09:05:51;;;;;;;0.90;0.65;;;;;;;;;;4998559;28;20567;-73
2024/03/26 09:08:16;;;;;;;0.77;0.77;;;;;;;;;;4998577;28;20521;-73
2024/03/26 09:10:42;;;;;;;1.02;0.95;;;;;;;;;;4988807;28;20046;-72
2024/03/26 09:13:08;;;;;;;1.55;1.05;;;;;;;;;;4974391;28;20098;-72
2024/03/26 09:15:33;;;;;;;0.45;0.40;;;;;;;;;;4992400;28;20105;-72
2024/03/26 09:17:59;;;;;;;1.73;1.17;;;;;;;;;;4970584;28;20049;-73
2024/03/26 09:20:28;;;;;;;1.17;1.08;;;;;;;;;;4983934;28;20037;-72
2024/03/26 09:22:54;;;;;;;3.35;1.40;;;;;;;;;;4997231;28;20414;-72
2024/03/26 09:25:21;;;;;;;3.20;0.95;;;;;;;;;;4980881;28;20040;-73
2024/03/26 09:27:47;;;;;;;1.27;1.17;;;;;;;;;;4967035;28;20051;-72
2024/03/26 09:30:15;;;;;;;1.10;0.73;;;;;;;;;;4977363;28;20073;-73
2024/03/26 09:32:42;;;;;;;2.05;1.65;;;;;;;;;;4973331;28;20560;-73
2024/03/26 09:35:08;;;;;;;1.48;0.52;;;;;;;;;;4980873;28;20034;-76
2024/03/26 09:37:44;;;;;;;1.30;1.20;;;;;;;;;;4936826;28;20034;-75
2024/03/26 09:40:12;;;;;;;0.80;0.65;;;;;;;;;;4984418;28;20053;-74
2024/03/26 09:42:37;;;;;;;0.73;0.60;;;;;;;;;;5003547;28;20084;-74
2024/03/26 09:45:07;;;;;;;0.57;0.40;;;;;;;;;;5000175;28;20695;-73
2024/03/26 09:47:34;;;;;;;0.30;0.30;;;;;;;;;;4987017;28;20033;-74
2024/03/26 09:50:04;;;;;;;0.65;0.65;;;;;;;;;;4973698;28;20148;-72
2024/03/26 09:52:40;;;;;;;1.13;1.05;;;;;;;;;;4998528;28;20139;-74
2024/03/26 09:55:07;;;;;;;0.63;0.60;;;;;;;;;;4999067;28;20054;-72
2024/03/26 09:57:33;;;;;;;1.38;1.20;;;;;;;;;;4987090;28;20791;-74
2024/03/26 10:00:06;;;;;;;1.02;0.93;;;;;;;;;;5004082;28;20091;-74
2024/03/26 10:02:51;;;;;;;0.75;0.65;;;;;;;;;;5009750;28;20057;-77
2024/03/26 10:05:39;;;;;;;0.30;0.30;;;;;;;;;;5024349;28;20037;-76
2024/03/26 10:08:41;;;;;;;1.73;1.13;;;;;;;;;;5010487;28;20053;-77
2024/03/26 10:11:21;;;;;;;0.60;0.60;;;;;;;;;;5025050;28;20053;-76
2024/03/26 10:14:08;;;;;;;1.25;1.13;;;;;;;;;;5032101;28;20051;-76
2024/03/26 10:16:53;;;;;;;0.40;0.40;;;;;;;;;;5016589;28;20084;-77
2024/03/26 10:19:57;;;;;;;0.63;0.40;;;;;;;;;;4996828;28;20091;-76
2024/03/26 10:22:43;;;;;;;0.47;0.47;;;;;;;;;;5043814;28;20037;-76
2024/03/26 10:25:58;;;;;;;0.98;0.75;;;;;;;;;;4999181;28;20049;-77
2024/03/26 10:28:27;;;;;;;0.40;0.40;;;;;;;;;;5026289;28;20032;-76
2024/03/26 10:31:18;;;;;;;1.05;0.68;;;;;;;;;;5012382;28;20037;-76
2024/03/26 10:34:02;;;;;;;1.58;0.90;;;;;;;;;;5026655;28;20082;-76
2024/03/26 10:36:50;;;;;;;0.30;0.30;;;;;;;;;;4997898;28;20041;-76
2024/03/26 10:39:51;;;;;;;0.65;0.65;;;;;;;;;;5018400;28;20468;-77
2024/03/26 10:42:54;;;;;;;0.93;0.90;;;;;;;;;;5021879;28;20044;-76
2024/03/26 10:45:41;;;;;;;0.32;0.30;;;;;;;;;;4973774;28;20056;-78
2024/03/26 10:48:35;;;;;;;1.52;1.42;;;;;;;;;;5033916;28;20037;-78
2024/03/26 10:51:00;;;;;;;;;;;;;;;;;;5021303;28;20029;-76
2024/03/26 10:53:49;;;;;;;0.90;0.80;;;;;;;;;;5025940;28;19920;-76
2024/03/26 10:56:36;;;;;;;0.40;0.40;;;;;;;;;;5022794;28;20033;-77
2024/03/26 10:59:22;;;;;;;0.43;0.40;;;;;;;;;;4999336;28;20077;-78
2024/03/26 11:01:53;;;;;;;0.65;0.40;;;;;;;;;;4973911;28;20049;-77
2024/03/26 11:04:18;;;;;;;0.63;0.57;;;;;;;;;;4962820;28;20058;-87
2024/03/26 11:06:43;;;;;;;0.90;0.82;;;;;;;;;;4995878;28;20056;-85
2024/03/26 11:09:14;;;;;;;0.30;0.30;;;;;;;;;;4992978;28;20045;-87
2024/03/26 11:11:40;;;;;;;0.30;0.30;;;;;;;;;;4994008;28;20058;-86
2024/03/26 11:14:06;;;;;;;0.75;0.73;;;;;;;;;;5001016;28;20701;-86
2024/03/26 11:16:41;;;;;;;0.35;0.30;;;;;;;;;;4979610;28;20045;-85
2024/03/26 11:19:17;;;;;;;9.18;1.23;;;;;;;;;;4987956;28;20046;-86
2024/03/26 11:21:42;;;;;;;3.13;2.20;;;;;;;;;;4997214;28;20046;-83
2024/03/26 11:24:09;;;;;;;0.35;0.35;;;;;;;;;;4999908;28;20465;-85
2024/03/26 11:26:34;;;;;;;1.08;0.98;;;;;;;;;;4978569;28;20512;-83
2024/03/26 11:29:03;;;;;;;0.90;0.85;;;;;;;;;;4997283;28;20453;-85
2024/03/26 11:31:28;;;;;;;0.20;0.20;;;;;;;;;;4997703;28;20084;-84
2024/03/26 11:33:53;;;;;;;0.20;0.20;;;;;;;;;;4999879;28;20121;-85
2024/03/26 11:36:19;;;;;;;0.52;0.40;;;;;;;;;;4990755;28;20061;-82
2024/03/26 11:38:47;;;;;;;1.65;0.40;;;;;;;;;;5005543;28;20033;-84
2024/03/26 11:41:12;;;;;;;0.57;0.30;;;;;;;;;;5005972;28;20737;-87
2024/03/26 11:43:38;;;;;;;2.38;0.90;;;;;;;;;;5009504;28;20045;-89
2024/03/26 11:46:04;;;;;;;0.82;0.82;;;;;;;;;;5004987;28;20042;-85
2024/03/26 11:48:29;;;;;;;1.15;1.05;;;;;;;;;;5021417;28;20050;-85
2024/03/26 11:50:55;;;;;;;0.73;0.50;;;;;;;;;;5005301;28;20437;-87
2024/03/26 11:53:20;;;;;;;0.77;0.55;;;;;;;;;;5012297;28;20053;-87
2024/03/26 11:55:48;;;;;;;0.30;0.30;;;;;;;;;;5009011;28;20077;-86
2024/03/26 11:58:14;;;;;;;0.25;0.25;;;;;;;;;;5008816;28;20458;-84
2024/03/26 12:00:41;;;;;;;0.20;0.20;;;;;;;;;;5008950;28;20084;-87
2024/03/26 12:03:09;;;;;;;0.30;0.30;;;;;;;;;;5021641;28;20049;-86
2024/03/26 12:05:35;;;;;;;0.50;0.38;;;;;;;;;;5029374;28;20345;-86
2024/03/26 12:08:00;;;;;;;0.30;0.30;;;;;;;;;;5032418;28;20428;-88
2024/03/26 12:10:26;;;;;;;1.25;0.93;;;;;;;;;;5026113;28;20046;-87
2024/03/26 12:12:54;;;;;;;0.32;0.32;;;;;;;;;;5029230;28;20159;-87
2024/03/26 12:15:20;;;;;;;0.93;0.85;;;;;;;;;;5023592;28;20094;-85
2024/03/26 12:17:45;;;;;;;0.88;0.88;;;;;;;;;;5030969;28;20577;-81
2024/03/26 12:20:11;;;;;;;0.20;0.20;;;;;;;;;;5025703;28;20114;-86
2024/03/26 12:22:40;;;;;;;9.27;1.75;;;;;;;;;;5029632;28;20029;-87
2024/03/26 12:25:06;;;;;;;1.05;0.80;;;;;;;;;;5031522;28;20116;-80
2024/03/26 12:27:35;;;;;;;1.38;1.17;;;;;;;;;;5028089;28;20160;-87
2024/03/26 12:30:03;;;;;;;2.42;2.05;;;;;;;;;;5025796;28;20112;-88
2024/03/26 12:32:28;;;;;;;1.80;1.40;;;;;;;;;;5036150;28;20081;-86
2024/03/26 12:34:54;;;;;;;0.28;0.28;;;;;;;;;;5057174;28;20118;-86
2024/03/26 12:37:20;;;;;;;0.20;0.20;;;;;;;;;;5025092;28;20775;-86
2024/03/26 12:39:45;;;;;;;0.50;0.43;;;;;;;;;;5025523;28;20037;-84
2024/03/26 12:42:11;;;;;;;0.28;0.28;;;;;;;;;;5028743;28;20088;-85
2024/03/26 12:44:36;;;;;;;0.32;0.32;;;;;;;;;;5027025;28;20018;-83
2024/03/26 12:47:01;;;;;;;1.00;0.95;;;;;;;;;;5026544;28;20495;-84
2024/03/26 12:49:27;;;;;;;0.82;0.75;;;;;;;;;;5028025;28;20041;-84
2024/03/26 12:51:56;;;;;;;0.65;0.65;;;;;;;;;;5036066;28;20047;-85
2024/03/26 12:54:23;;;;;;;2.15;0.57;;;;;;;;;;5034895;28;20045;-84
2024/03/26 12:56:48;;;;;;;0.20;0.20;;;;;;;;;;5065524;28;20041;-85
2024/03/26 12:59:14;;;;;;;0.60;0.60;;;;;;;;;;5030702;28;20622;-86
2024/03/26 13:01:39;;;;;;;0.63;0.60;;;;;;;;;;5026627;28;20049;-85
2024/03/26 13:04:05;;;;;;;0.20;0.20;;;;;;;;;;5045624;28;20056;-86
2024/03/26 13:06:30;;;;;;;0.95;0.85;;;;;;;;;;5028348;28;20405;-85
2024/03/26 13:08:55;;;;;;;0.47;0.40;;;;;;;;;;5028660;28;20045;-86
2024/03/26 13:11:21;;;;;;;0.60;0.60;;;;;;;;;;5028535;28;20032;-86
2024/03/26 13:13:47;;;;;;;0.40;0.40;;;;;;;;;;5035200;28;20536;-84
2024/03/26 13:16:13;;;;;;;0.65;0.65;;;;;;;;;;5021419;28;20176;-85
2024/03/26 13:18:40;;;;;;;0.75;0.70;;;;;;;;;;5029465;28;20041;-85
2024/03/26 13:21:06;;;;;;;0.40;0.40;;;;;;;;;;5028139;28;20416;-85
2024/03/26 13:23:31;;;;;;;2.38;0.95;;;;;;;;;;5026562;28;20085;-83
2024/03/26 13:25:58;;;;;;;0.55;0.55;;;;;;;;;;5026254;28;20037;-84
2024/03/26 13:28:24;;;;;;;0.35;0.30;;;;;;;;;;5026299;28;20382;-84
2024/03/26 13:30:50;;;;;;;0.35;0.35;;;;;;;;;;5026876;28;20139;-85
2024/03/26 13:33:15;;;;;;;0.25;0.25;;;;;;;;;;5025628;28;20072;-84
2024/03/26 13:35:41;;;;;;;0.77;0.73;;;;;;;;;;5026235;28;20033;-86
2024/03/26 13:38:06;;;;;;;1.23;1.10;;;;;;;;;;5026573;28;20033;-85
2024/03/26 13:40:32;;;;;;;0.80;0.80;;;;;;;;;;5056897;28;20041;-84
2024/03/26 13:42:57;;;;;;;1.25;1.15;;;;;;;;;;5027159;28;20132;-85
2024/03/26 13:45:23;;;;;;;0.30;0.30;;;;;;;;;;5024717;28;20051;-85
2024/03/26 13:47:48;;;;;;;0.20;0.20;;;;;;;;;;5026822;28;20099;-85
2024/03/26 13:50:14;;;;;;;1.33;0.55;;;;;;;;;;5026851;28;20096;-84
2024/03/26 13:52:39;;;;;;;0.20;0.20;;;;;;;;;;5025675;28;20030;-86
2024/03/26 13:55:05;;;;;;;2.05;0.85;;;;;;;;;;5025576;28;20308;-85
2024/03/26 13:57:30;;;;;;;0.88;0.88;;;;;;;;;;5030386;28;20044;-84
2024/03/26 13:59:56;;;;;;;0.63;0.63;;;;;;;;;;5028101;28;20046;-84
2024/03/26 14:02:21;;;;;;;0.40;0.40;;;;;;;;;;5030354;28;20046;-84
2024/03/26 14:04:47;;;;;;;0.75;0.68;;;;;;;;;;5025900;28;20065;-85
2024/03/26 14:07:13;;;;;;;1.58;1.48;;;;;;;;;;5021893;28;20047;-85
2024/03/26 14:09:40;;;;;;;0.68;0.47;;;;;;;;;;5021355;28;20397;-84
2024/03/26 14:12:06;;;;;;;0.47;0.22;;;;;;;;;;5026094;28;20073;-84
2024/03/26 14:14:32;;;;;;;0.30;0.30;;;;;;;;;;5024851;28;20021;-84
2024/03/26 14:16:57;;;;;;;0.20;0.20;;;;;;;;;;5024883;28;20416;-84
2024/03/26 14:19:25;;;;;;;0.50;0.30;;;;;;;;;;5026266;28;20465;-86
2024/03/26 14:21:50;;;;;;;0.77;0.77;;;;;;;;;;5024954;28;20057;-83
2024/03/26 14:24:16;;;;;;;0.28;0.20;;;;;;;;;;5024652;28;20065;-86
2024/03/26 14:26:41;;;;;;;0.30;0.30;;;;;;;;;;5024896;28;20026;-84
2024/03/26 14:29:07;;;;;;;1.50;0.55;;;;;;;;;;5025374;28;20033;-84
2024/03/26 14:31:32;;;;;;;0.65;0.65;;;;;;;;;;5024908;28;20042;-85
2024/03/26 14:33:57;;;;;;;0.28;0.28;;;;;;;;;;5023532;28;20462;-85
2024/03/26 14:36:23;;;;;;;2.00;1.33;;;;;;;;;;5025357;28;20049;-85
2024/03/26 14:38:48;;;;;;;0.40;0.38;;;;;;;;;;5024938;28;20402;-83
2024/03/26 14:41:13;;;;;;;0.30;0.20;;;;;;;;;;5023784;28;20025;-83
2024/03/26 14:43:39;;;;;;;27.70;1.30;;;;;;;;;;5025572;28;20040;-84